Ana Sayfa
METAR-TAF:

METAR-TAF

Havaalanları :

Palacios Municipal Airport

Palacios, Teksas, Amerika Birleşik Devletleri

Enlem: 28-43-39N, Boylam: 096-15-03W, yükseklik: 5 m

Güncel hava durumu gözlemi

Rapor saat 06:29 UTC de 10 dakika önce yapıldı.
Rüzgar kuzeydoğudan 6 kt
Sıcaklık 19°C
Nem 73%
Basınç 1017 hPa
Görüş mesafesi: 16.1 km
2500 ft yükseklikte parçalı bulutlu
3500 ft yükseklikte çok bulutlu

METAR: KPSX 300629Z AUTO 05006KT 10SM SCT025 OVC035 19/14 A3003 RMK AO2 T01890139

Saat: 01:39 (06:39 UTC)


TAF: eksik

4.000'den fazla havaalanı için hava durumu gözlemleri ve tahminleri (METAR ve TAF raporları).

Kullanılabilir istasyonlar harita üzerinde sarı ve kırmızı noktalarla gösterilir.

İstasyonun adını görmek için fareyi noktanın üzerinde gezdirin.

Sonrasında hava gözlem ve tahminlerini görmek için tıklayın.

Haritayı değiştirmek için: yaklaştırmak için siyah artı işaretli yeşil düğmeye ve uzaklaştırmak için de eksi işaretli düğmeye hızla tıklayın; bitişik haritalar için yeşil okları kullanın.


METAR-TAF: